<?xml version="1.0" encoding="UTF-8" standalone="no" ?>
<gpx xmlns="http://www.topografix.com/GPX/1/1" xmlns:xsi="http://www.w3.org/2001/XMLSchema-instance" xsi:schemaLocation="http://www.topografix.com/GPX/1/1 http://www.topografix.com/GPX/1/1/gpx.xsd" version="1.1" creator="VisuGPX - https://www.visugpx.com">
  <metadata>
    <name>Pic de MAssayre</name>
    <desc><![CDATA[Pic de Massayre - Cabane des Ludines - Barrage de Riete
]]></desc>
  </metadata>
  <trk>
    <name><![CDATA[Activité dans l'après-midi]]></name>
    <trkseg>
      <trkpt lat="42.70454" lon="1.66227">
        <ele>1188.9</ele>
        <time>2020-02-09T14:10:58Z</time>
      </trkpt>
      <trkpt lat="42.70454" lon="1.66234">
        <ele>1187.1</ele>
        <time>2020-02-09T14:11:30Z</time>
      </trkpt>
      <trkpt lat="42.70458" lon="1.66234">
        <ele>1185.8</ele>
        <time>2020-02-09T14:11:47Z</time>
      </trkpt>
      <trkpt lat="42.70461" lon="1.66233">
        <ele>1184.6</ele>
        <time>2020-02-09T14:11:50Z</time>
      </trkpt>
      <trkpt lat="42.70464" lon="1.66232">
        <ele>1183</ele>
        <time>2020-02-09T14:11:54Z</time>
      </trkpt>
      <trkpt lat="42.70467" lon="1.66233">
        <ele>1181.5</ele>
        <time>2020-02-09T14:11:57Z</time>
      </trkpt>
      <trkpt lat="42.70474" lon="1.66236">
        <ele>1177.7</ele>
        <time>2020-02-09T14:12:11Z</time>
      </trkpt>
      <trkpt lat="42.70478" lon="1.66237">
        <ele>1175.6</ele>
        <time>2020-02-09T14:12:14Z</time>
      </trkpt>
      <trkpt lat="42.70477" lon="1.66241">
        <ele>1174.1</ele>
        <time>2020-02-09T14:12:26Z</time>
      </trkpt>
      <trkpt lat="42.70477" lon="1.66248">
        <ele>1171.3</ele>
        <time>2020-02-09T14:12:28Z</time>
      </trkpt>
      <trkpt lat="42.70476" lon="1.66252">
        <ele>1169.9</ele>
        <time>2020-02-09T14:12:41Z</time>
      </trkpt>
      <trkpt lat="42.70474" lon="1.66257">
        <ele>1168.8</ele>
        <time>2020-02-09T14:12:43Z</time>
      </trkpt>
      <trkpt lat="42.70472" lon="1.66261">
        <ele>1167.7</ele>
        <time>2020-02-09T14:12:45Z</time>
      </trkpt>
      <trkpt lat="42.70469" lon="1.66268">
        <ele>1166</ele>
        <time>2020-02-09T14:12:48Z</time>
      </trkpt>
      <trkpt lat="42.70466" lon="1.66273">
        <ele>1164.9</ele>
        <time>2020-02-09T14:12:51Z</time>
      </trkpt>
      <trkpt lat="42.70464" lon="1.66277">
        <ele>1163.9</ele>
        <time>2020-02-09T14:12:52Z</time>
      </trkpt>
      <trkpt lat="42.70463" lon="1.66284">
        <ele>1161.9</ele>
        <time>2020-02-09T14:12:56Z</time>
      </trkpt>
      <trkpt lat="42.70462" lon="1.66288">
        <ele>1160.6</ele>
        <time>2020-02-09T14:12:59Z</time>
      </trkpt>
      <trkpt lat="42.70461" lon="1.66292">
        <ele>1159.2</ele>
        <time>2020-02-09T14:13:30Z</time>
      </trkpt>
      <trkpt lat="42.70464" lon="1.66295">
        <ele>1158.1</ele>
        <time>2020-02-09T14:13:32Z</time>
      </trkpt>
      <trkpt lat="42.70463" lon="1.66299">
        <ele>1157.3</ele>
        <time>2020-02-09T14:13:45Z</time>
      </trkpt>
      <trkpt lat="42.70459" lon="1.66303">
        <ele>1156.3</ele>
        <time>2020-02-09T14:13:48Z</time>
      </trkpt>
      <trkpt lat="42.70457" lon="1.66305">
        <ele>1155.6</ele>
        <time>2020-02-09T14:13:54Z</time>
      </trkpt>
      <trkpt lat="42.70455" lon="1.66311">
        <ele>1154.5</ele>
        <time>2020-02-09T14:13:56Z</time>
      </trkpt>
      <trkpt lat="42.70457" lon="1.66317">
        <ele>1153.5</ele>
        <time>2020-02-09T14:14:07Z</time>
      </trkpt>
      <trkpt lat="42.70461" lon="1.66318">
        <ele>1152.5</ele>
        <time>2020-02-09T14:14:13Z</time>
      </trkpt>
      <trkpt lat="42.70464" lon="1.6632">
        <ele>1151.5</ele>
        <time>2020-02-09T14:14:19Z</time>
      </trkpt>
      <trkpt lat="42.70467" lon="1.66322">
        <ele>1150.5</ele>
        <time>2020-02-09T14:14:36Z</time>
      </trkpt>
      <trkpt lat="42.70471" lon="1.66324">
        <ele>1149.3</ele>
        <time>2020-02-09T14:14:43Z</time>
      </trkpt>
      <trkpt lat="42.70474" lon="1.66326">
        <ele>1148.1</ele>
        <time>2020-02-09T14:14:53Z</time>
      </trkpt>
      <trkpt lat="42.70478" lon="1.66327">
        <ele>1146.8</ele>
        <time>2020-02-09T14:15:10Z</time>
      </trkpt>
      <trkpt lat="42.70481" lon="1.66329">
        <ele>1145.9</ele>
        <time>2020-02-09T14:15:27Z</time>
      </trkpt>
      <trkpt lat="42.70485" lon="1.66331">
        <ele>1145</ele>
        <time>2020-02-09T14:15:32Z</time>
      </trkpt>
      <trkpt lat="42.70488" lon="1.66333">
        <ele>1144.2</ele>
        <time>2020-02-09T14:15:35Z</time>
      </trkpt>
      <trkpt lat="42.70491" lon="1.66334">
        <ele>1143.4</ele>
        <time>2020-02-09T14:15:36Z</time>
      </trkpt>
      <trkpt lat="42.70495" lon="1.66337">
        <ele>1142.4</ele>
        <time>2020-02-09T14:15:41Z</time>
      </trkpt>
      <trkpt lat="42.70496" lon="1.66341">
        <ele>1141.6</ele>
        <time>2020-02-09T14:15:46Z</time>
      </trkpt>
      <trkpt lat="42.70496" lon="1.66346">
        <ele>1140.8</ele>
        <time>2020-02-09T14:15:53Z</time>
      </trkpt>
      <trkpt lat="42.70496" lon="1.66351">
        <ele>1139.8</ele>
        <time>2020-02-09T14:15:59Z</time>
      </trkpt>
      <trkpt lat="42.70498" lon="1.66353">
        <ele>1139.1</ele>
        <time>2020-02-09T14:16:06Z</time>
      </trkpt>
      <trkpt lat="42.70502" lon="1.66353">
        <ele>1138.2</ele>
        <time>2020-02-09T14:16:11Z</time>
      </trkpt>
      <trkpt lat="42.70508" lon="1.66355">
        <ele>1137.1</ele>
        <time>2020-02-09T14:16:17Z</time>
      </trkpt>
      <trkpt lat="42.70511" lon="1.66355">
        <ele>1136.5</ele>
        <time>2020-02-09T14:16:26Z</time>
      </trkpt>
      <trkpt lat="42.70515" lon="1.66356">
        <ele>1135</ele>
        <time>2020-02-09T14:16:39Z</time>
      </trkpt>
      <trkpt lat="42.70519" lon="1.66354">
        <ele>1133.5</ele>
        <time>2020-02-09T14:16:44Z</time>
      </trkpt>
      <trkpt lat="42.70521" lon="1.66352">
        <ele>1132.4</ele>
        <time>2020-02-09T14:16:50Z</time>
      </trkpt>
      <trkpt lat="42.70524" lon="1.66349">
        <ele>1131.8</ele>
        <time>2020-02-09T14:16:54Z</time>
      </trkpt>
      <trkpt lat="42.70525" lon="1.66346">
        <ele>1131.7</ele>
        <time>2020-02-09T14:16:56Z</time>
      </trkpt>
      <trkpt lat="42.70537" lon="1.66335">
        <ele>1131</ele>
        <time>2020-02-09T14:17:03Z</time>
      </trkpt>
      <trkpt lat="42.70539" lon="1.66333">
        <ele>1130.5</ele>
        <time>2020-02-09T14:17:05Z</time>
      </trkpt>
      <trkpt lat="42.70537" lon="1.66339">
        <ele>1129.8</ele>
        <time>2020-02-09T14:17:09Z</time>
      </trkpt>
      <trkpt lat="42.70535" lon="1.66343">
        <ele>1129.2</ele>
        <time>2020-02-09T14:17:12Z</time>
      </trkpt>
      <trkpt lat="42.70534" lon="1.66348">
        <ele>1128.5</ele>
        <time>2020-02-09T14:17:16Z</time>
      </trkpt>
      <trkpt lat="42.70532" lon="1.66351">
        <ele>1127.9</ele>
        <time>2020-02-09T14:17:19Z</time>
      </trkpt>
      <trkpt lat="42.70531" lon="1.66355">
        <ele>1127.3</ele>
        <time>2020-02-09T14:17:35Z</time>
      </trkpt>
      <trkpt lat="42.70528" lon="1.6636">
        <ele>1126.4</ele>
        <time>2020-02-09T14:17:40Z</time>
      </trkpt>
      <trkpt lat="42.70527" lon="1.66364">
        <ele>1125.5</ele>
        <time>2020-02-09T14:17:43Z</time>
      </trkpt>
      <trkpt lat="42.70521" lon="1.66367">
        <ele>1124.2</ele>
        <time>2020-02-09T14:17:51Z</time>
      </trkpt>
      <trkpt lat="42.70515" lon="1.66368">
        <ele>1122.4</ele>
        <time>2020-02-09T14:18:01Z</time>
      </trkpt>
      <trkpt lat="42.70512" lon="1.66371">
        <ele>1121.5</ele>
        <time>2020-02-09T14:18:04Z</time>
      </trkpt>
      <trkpt lat="42.7051" lon="1.66374">
        <ele>1120.6</ele>
        <time>2020-02-09T14:18:13Z</time>
      </trkpt>
      <trkpt lat="42.70507" lon="1.66375">
        <ele>1119.8</ele>
        <time>2020-02-09T14:18:19Z</time>
      </trkpt>
      <trkpt lat="42.70507" lon="1.6638">
        <ele>1118.9</ele>
        <time>2020-02-09T14:18:33Z</time>
      </trkpt>
      <trkpt lat="42.70516" lon="1.6639">
        <ele>1115.9</ele>
        <time>2020-02-09T14:18:35Z</time>
      </trkpt>
      <trkpt lat="42.7052" lon="1.6639">
        <ele>1114.5</ele>
        <time>2020-02-09T14:18:39Z</time>
      </trkpt>
      <trkpt lat="42.70524" lon="1.66391">
        <ele>1113.4</ele>
        <time>2020-02-09T14:18:46Z</time>
      </trkpt>
      <trkpt lat="42.7053" lon="1.66391">
        <ele>1111.9</ele>
        <time>2020-02-09T14:18:49Z</time>
      </trkpt>
      <trkpt lat="42.70531" lon="1.66395">
        <ele>1111.4</ele>
        <time>2020-02-09T14:18:52Z</time>
      </trkpt>
      <trkpt lat="42.70533" lon="1.66403">
        <ele>1110.3</ele>
        <time>2020-02-09T14:18:59Z</time>
      </trkpt>
      <trkpt lat="42.70535" lon="1.66408">
        <ele>1109.4</ele>
        <time>2020-02-09T14:19:04Z</time>
      </trkpt>
      <trkpt lat="42.70536" lon="1.66412">
        <ele>1108.7</ele>
        <time>2020-02-09T14:19:07Z</time>
      </trkpt>
      <trkpt lat="42.70541" lon="1.66415">
        <ele>1107.6</ele>
        <time>2020-02-09T14:19:09Z</time>
      </trkpt>
      <trkpt lat="42.70546" lon="1.66415">
        <ele>1106.5</ele>
        <time>2020-02-09T14:19:15Z</time>
      </trkpt>
      <trkpt lat="42.70548" lon="1.66415">
        <ele>1106</ele>
        <time>2020-02-09T14:19:19Z</time>
      </trkpt>
      <trkpt lat="42.7055" lon="1.66415">
        <ele>1105.5</ele>
        <time>2020-02-09T14:19:25Z</time>
      </trkpt>
      <trkpt lat="42.70553" lon="1.66415">
        <ele>1105</ele>
        <time>2020-02-09T14:19:26Z</time>
      </trkpt>
      <trkpt lat="42.70556" lon="1.66414">
        <ele>1104.6</ele>
        <time>2020-02-09T14:19:34Z</time>
      </trkpt>
      <trkpt lat="42.70557" lon="1.66419">
        <ele>1104.4</ele>
        <time>2020-02-09T14:19:43Z</time>
      </trkpt>
      <trkpt lat="42.70553" lon="1.66428">
        <ele>1104.1</ele>
        <time>2020-02-09T14:19:49Z</time>
      </trkpt>
      <trkpt lat="42.70559" lon="1.66412">
        <ele>1102.6</ele>
        <time>2020-02-09T14:19:59Z</time>
      </trkpt>
      <trkpt lat="42.70562" lon="1.66411">
        <ele>1102.3</ele>
        <time>2020-02-09T14:20:13Z</time>
      </trkpt>
      <trkpt lat="42.70561" lon="1.66417">
        <ele>1101.8</ele>
        <time>2020-02-09T14:20:16Z</time>
      </trkpt>
      <trkpt lat="42.70563" lon="1.6642">
        <ele>1101.5</ele>
        <time>2020-02-09T14:20:34Z</time>
      </trkpt>
      <trkpt lat="42.70561" lon="1.66424">
        <ele>1101.2</ele>
        <time>2020-02-09T14:20:36Z</time>
      </trkpt>
      <trkpt lat="42.70559" lon="1.66428">
        <ele>1100.9</ele>
        <time>2020-02-09T14:20:38Z</time>
      </trkpt>
      <trkpt lat="42.7054" lon="1.66463">
        <ele>1100.4</ele>
        <time>2020-02-09T14:20:42Z</time>
      </trkpt>
      <trkpt lat="42.7054" lon="1.66467">
        <ele>1100.7</ele>
        <time>2020-02-09T14:20:44Z</time>
      </trkpt>
      <trkpt lat="42.70539" lon="1.66472">
        <ele>1101.1</ele>
        <time>2020-02-09T14:20:55Z</time>
      </trkpt>
      <trkpt lat="42.70535" lon="1.66478">
        <ele>1101.6</ele>
        <time>2020-02-09T14:20:57Z</time>
      </trkpt>
      <trkpt lat="42.70538" lon="1.66476">
        <ele>1101.9</ele>
        <time>2020-02-09T14:21:08Z</time>
      </trkpt>
      <trkpt lat="42.70535" lon="1.66471">
        <ele>1102.3</ele>
        <time>2020-02-09T14:21:13Z</time>
      </trkpt>
      <trkpt lat="42.70533" lon="1.66468">
        <ele>1102.7</ele>
        <time>2020-02-09T14:21:21Z</time>
      </trkpt>
      <trkpt lat="42.7053" lon="1.66471">
        <ele>1103.1</ele>
        <time>2020-02-09T14:21:33Z</time>
      </trkpt>
      <trkpt lat="42.70528" lon="1.66474">
        <ele>1103.5</ele>
        <time>2020-02-09T14:21:38Z</time>
      </trkpt>
      <trkpt lat="42.70517" lon="1.66482">
        <ele>1104.8</ele>
        <time>2020-02-09T14:21:42Z</time>
      </trkpt>
      <trkpt lat="42.70514" lon="1.66484">
        <ele>1105.1</ele>
        <time>2020-02-09T14:21:44Z</time>
      </trkpt>
      <trkpt lat="42.7051" lon="1.6649">
        <ele>1104.9</ele>
        <time>2020-02-09T14:21:48Z</time>
      </trkpt>
      <trkpt lat="42.70508" lon="1.66494">
        <ele>1104.8</ele>
        <time>2020-02-09T14:21:52Z</time>
      </trkpt>
      <trkpt lat="42.70506" lon="1.66497">
        <ele>1104.7</ele>
        <time>2020-02-09T14:21:54Z</time>
      </trkpt>
      <trkpt lat="42.70505" lon="1.66501">
        <ele>1104.6</ele>
        <time>2020-02-09T14:21:56Z</time>
      </trkpt>
      <trkpt lat="42.70504" lon="1.66504">
        <ele>1104.5</ele>
        <time>2020-02-09T14:21:57Z</time>
      </trkpt>
      <trkpt lat="42.70504" lon="1.66508">
        <ele>1104.5</ele>
        <time>2020-02-09T14:22:07Z</time>
      </trkpt>
      <trkpt lat="42.70504" lon="1.66512">
        <ele>1104.5</ele>
        <time>2020-02-09T14:22:18Z</time>
      </trkpt>
      <trkpt lat="42.70498" lon="1.66526">
        <ele>1104.5</ele>
        <time>2020-02-09T14:22:21Z</time>
      </trkpt>
      <trkpt lat="42.70497" lon="1.6653">
        <ele>1104.6</ele>
        <time>2020-02-09T14:22:27Z</time>
      </trkpt>
      <trkpt lat="42.70496" lon="1.66535">
        <ele>1104.7</ele>
        <time>2020-02-09T14:22:31Z</time>
      </trkpt>
      <trkpt lat="42.70495" lon="1.6654">
        <ele>1104.8</ele>
        <time>2020-02-09T14:22:35Z</time>
      </trkpt>
      <trkpt lat="42.70494" lon="1.66544">
        <ele>1104.8</ele>
        <time>2020-02-09T14:22:37Z</time>
      </trkpt>
      <trkpt lat="42.70494" lon="1.66549">
        <ele>1104.9</ele>
        <time>2020-02-09T14:22:39Z</time>
      </trkpt>
      <trkpt lat="42.70493" lon="1.66554">
        <ele>1105</ele>
        <time>2020-02-09T14:22:41Z</time>
      </trkpt>
      <trkpt lat="42.70491" lon="1.66562">
        <ele>1105.3</ele>
        <time>2020-02-09T14:22:44Z</time>
      </trkpt>
      <trkpt lat="42.70489" lon="1.66569">
        <ele>1105.5</ele>
        <time>2020-02-09T14:22:47Z</time>
      </trkpt>
      <trkpt lat="42.70481" lon="1.6658">
        <ele>1105.9</ele>
        <time>2020-02-09T14:22:49Z</time>
      </trkpt>
      <trkpt lat="42.70481" lon="1.66585">
        <ele>1106.1</ele>
        <time>2020-02-09T14:22:57Z</time>
      </trkpt>
      <trkpt lat="42.70481" lon="1.6659">
        <ele>1106.4</ele>
        <time>2020-02-09T14:23:01Z</time>
      </trkpt>
      <trkpt lat="42.70484" lon="1.66596">
        <ele>1106.6</ele>
        <time>2020-02-09T14:23:10Z</time>
      </trkpt>
      <trkpt lat="42.70482" lon="1.66605">
        <ele>1107</ele>
        <time>2020-02-09T14:23:12Z</time>
      </trkpt>
      <trkpt lat="42.70484" lon="1.6661">
        <ele>1107.3</ele>
        <time>2020-02-09T14:23:19Z</time>
      </trkpt>
      <trkpt lat="42.70484" lon="1.66615">
        <ele>1107.5</ele>
        <time>2020-02-09T14:23:23Z</time>
      </trkpt>
      <trkpt lat="42.70486" lon="1.66618">
        <ele>1107.7</ele>
        <time>2020-02-09T14:23:27Z</time>
      </trkpt>
      <trkpt lat="42.70487" lon="1.66622">
        <ele>1107.8</ele>
        <time>2020-02-09T14:23:30Z</time>
      </trkpt>
      <trkpt lat="42.7049" lon="1.66627">
        <ele>1108</ele>
        <time>2020-02-09T14:23:35Z</time>
      </trkpt>
      <trkpt lat="42.70491" lon="1.66636">
        <ele>1108.2</ele>
        <time>2020-02-09T14:23:39Z</time>
      </trkpt>
      <trkpt lat="42.70492" lon="1.6664">
        <ele>1108.3</ele>
        <time>2020-02-09T14:23:45Z</time>
      </trkpt>
      <trkpt lat="42.70486" lon="1.66647">
        <ele>1108.7</ele>
        <time>2020-02-09T14:23:47Z</time>
      </trkpt>
      <trkpt lat="42.70487" lon="1.66651">
        <ele>1108.9</ele>
        <time>2020-02-09T14:23:53Z</time>
      </trkpt>
      <trkpt lat="42.7049" lon="1.66653">
        <ele>1109</ele>
        <time>2020-02-09T14:23:56Z</time>
      </trkpt>
      <trkpt lat="42.70494" lon="1.66657">
        <ele>1109.3</ele>
        <time>2020-02-09T14:24:00Z</time>
      </trkpt>
      <trkpt lat="42.70492" lon="1.66669">
        <ele>1109.6</ele>
        <time>2020-02-09T14:24:02Z</time>
      </trkpt>
      <trkpt lat="42.70492" lon="1.66672">
        <ele>1109.7</ele>
        <time>2020-02-09T14:24:06Z</time>
      </trkpt>
      <trkpt lat="42.70493" lon="1.66676">
        <ele>1109.8</ele>
        <time>2020-02-09T14:24:10Z</time>
      </trkpt>
      <trkpt lat="42.70489" lon="1.66684">
        <ele>1109.9</ele>
        <time>2020-02-09T14:24:12Z</time>
      </trkpt>
      <trkpt lat="42.70489" lon="1.66688">
        <ele>1110</ele>
        <time>2020-02-09T14:24:18Z</time>
      </trkpt>
      <trkpt lat="42.7049" lon="1.66693">
        <ele>1110.1</ele>
        <time>2020-02-09T14:24:23Z</time>
      </trkpt>
      <trkpt lat="42.70494" lon="1.6669">
        <ele>1110.2</ele>
        <time>2020-02-09T14:24:27Z</time>
      </trkpt>
      <trkpt lat="42.70497" lon="1.66687">
        <ele>1110.3</ele>
        <time>2020-02-09T14:24:29Z</time>
      </trkpt>
      <trkpt lat="42.705" lon="1.66684">
        <ele>1110.4</ele>
        <time>2020-02-09T14:24:31Z</time>
      </trkpt>
      <trkpt lat="42.70503" lon="1.66679">
        <ele>1110.5</ele>
        <time>2020-02-09T14:24:33Z</time>
      </trkpt>
      <trkpt lat="42.70507" lon="1.66675">
        <ele>1111</ele>
        <time>2020-02-09T14:24:35Z</time>
      </trkpt>
      <trkpt lat="42.70524" lon="1.66656">
        <ele>1110.2</ele>
        <time>2020-02-09T14:24:37Z</time>
      </trkpt>
      <trkpt lat="42.70527" lon="1.66651">
        <ele>1109.9</ele>
        <time>2020-02-09T14:24:44Z</time>
      </trkpt>
      <trkpt lat="42.70529" lon="1.66647">
        <ele>1109.8</ele>
        <time>2020-02-09T14:24:47Z</time>
      </trkpt>
      <trkpt lat="42.7053" lon="1.66643">
        <ele>1109.6</ele>
        <time>2020-02-09T14:24:51Z</time>
      </trkpt>
      <trkpt lat="42.70533" lon="1.66639">
        <ele>1109.4</ele>
        <time>2020-02-09T14:24:55Z</time>
      </trkpt>
      <trkpt lat="42.70536" lon="1.66635">
        <ele>1109.2</ele>
        <time>2020-02-09T14:24:59Z</time>
      </trkpt>
      <trkpt lat="42.70538" lon="1.66633">
        <ele>1109</ele>
        <time>2020-02-09T14:25:02Z</time>
      </trkpt>
      <trkpt lat="42.70541" lon="1.66628">
        <ele>1108.8</ele>
        <time>2020-02-09T14:25:06Z</time>
      </trkpt>
      <trkpt lat="42.70543" lon="1.66625">
        <ele>1108.8</ele>
        <time>2020-02-09T14:25:08Z</time>
      </trkpt>
      <trkpt lat="42.70542" lon="1.66617">
        <ele>1108.6</ele>
        <time>2020-02-09T14:25:13Z</time>
      </trkpt>
      <trkpt lat="42.70545" lon="1.66612">
        <ele>1108.5</ele>
        <time>2020-02-09T14:25:19Z</time>
      </trkpt>
      <trkpt lat="42.70547" lon="1.66609">
        <ele>1108.5</ele>
        <time>2020-02-09T14:25:21Z</time>
      </trkpt>
      <trkpt lat="42.7055" lon="1.66606">
        <ele>1108.4</ele>
        <time>2020-02-09T14:25:23Z</time>
      </trkpt>
      <trkpt lat="42.70553" lon="1.66603">
        <ele>1108.3</ele>
        <time>2020-02-09T14:25:25Z</time>
      </trkpt>
      <trkpt lat="42.70555" lon="1.66599">
        <ele>1108.2</ele>
        <time>2020-02-09T14:25:27Z</time>
      </trkpt>
      <trkpt lat="42.70558" lon="1.66595">
        <ele>1108.2</ele>
        <time>2020-02-09T14:25:30Z</time>
      </trkpt>
      <trkpt lat="42.70561" lon="1.66592">
        <ele>1108.1</ele>
        <time>2020-02-09T14:25:33Z</time>
      </trkpt>
      <trkpt lat="42.70569" lon="1.66591">
        <ele>1108.1</ele>
        <time>2020-02-09T14:25:36Z</time>
      </trkpt>
      <trkpt lat="42.70574" lon="1.66586">
        <ele>1108</ele>
        <time>2020-02-09T14:25:54Z</time>
      </trkpt>
      <trkpt lat="42.70577" lon="1.66583">
        <ele>1108</ele>
        <time>2020-02-09T14:26:00Z</time>
      </trkpt>
      <trkpt lat="42.70579" lon="1.6658">
        <ele>1107.9</ele>
        <time>2020-02-09T14:26:02Z</time>
      </trkpt>
      <trkpt lat="42.70582" lon="1.66577">
        <ele>1107.9</ele>
        <time>2020-02-09T14:26:04Z</time>
      </trkpt>
      <trkpt lat="42.70585" lon="1.66574">
        <ele>1107.8</ele>
        <time>2020-02-09T14:26:06Z</time>
      </trkpt>
      <trkpt lat="42.70588" lon="1.66571">
        <ele>1107.8</ele>
        <time>2020-02-09T14:26:09Z</time>
      </trkpt>
      <trkpt lat="42.7059" lon="1.66568">
        <ele>1107.7</ele>
        <time>2020-02-09T14:26:13Z</time>
      </trkpt>
      <trkpt lat="42.70593" lon="1.66564">
        <ele>1107.7</ele>
        <time>2020-02-09T14:26:17Z</time>
      </trkpt>
      <trkpt lat="42.70596" lon="1.66561">
        <ele>1107.6</ele>
        <time>2020-02-09T14:26:21Z</time>
      </trkpt>
      <trkpt lat="42.70599" lon="1.66558">
        <ele>1107.6</ele>
        <time>2020-02-09T14:26:25Z</time>
      </trkpt>
      <trkpt lat="42.70601" lon="1.66555">
        <ele>1107.5</ele>
        <time>2020-02-09T14:26:28Z</time>
      </trkpt>
      <trkpt lat="42.70604" lon="1.66552">
        <ele>1107.5</ele>
        <time>2020-02-09T14:26:31Z</time>
      </trkpt>
      <trkpt lat="42.70607" lon="1.66549">
        <ele>1107.5</ele>
        <time>2020-02-09T14:26:35Z</time>
      </trkpt>
      <trkpt lat="42.7061" lon="1.66546">
        <ele>1107.5</ele>
        <time>2020-02-09T14:26:37Z</time>
      </trkpt>
      <trkpt lat="42.70612" lon="1.66543">
        <ele>1107.4</ele>
        <time>2020-02-09T14:26:39Z</time>
      </trkpt>
      <trkpt lat="42.70615" lon="1.6654">
        <ele>1107.4</ele>
        <time>2020-02-09T14:26:40Z</time>
      </trkpt>
      <trkpt lat="42.70619" lon="1.66538">
        <ele>1107.4</ele>
        <time>2020-02-09T14:26:45Z</time>
      </trkpt>
      <trkpt lat="42.70622" lon="1.66536">
        <ele>1107.3</ele>
        <time>2020-02-09T14:26:47Z</time>
      </trkpt>
      <trkpt lat="42.70627" lon="1.66532">
        <ele>1107.3</ele>
        <time>2020-02-09T14:26:49Z</time>
      </trkpt>
      <trkpt lat="42.70632" lon="1.66529">
        <ele>1107.3</ele>
        <time>2020-02-09T14:26:51Z</time>
      </trkpt>
      <trkpt lat="42.70637" lon="1.66527">
        <ele>1107.2</ele>
        <time>2020-02-09T14:26:54Z</time>
      </trkpt>
      <trkpt lat="42.70642" lon="1.66527">
        <ele>1107.2</ele>
        <time>2020-02-09T14:26:58Z</time>
      </trkpt>
      <trkpt lat="42.70645" lon="1.66529">
        <ele>1107.1</ele>
        <time>2020-02-09T14:27:00Z</time>
      </trkpt>
      <trkpt lat="42.70648" lon="1.6653">
        <ele>1107.1</ele>
        <time>2020-02-09T14:27:02Z</time>
      </trkpt>
      <trkpt lat="42.70654" lon="1.6653">
        <ele>1107</ele>
        <time>2020-02-09T14:27:06Z</time>
      </trkpt>
      <trkpt lat="42.70656" lon="1.66529">
        <ele>1107</ele>
        <time>2020-02-09T14:27:08Z</time>
      </trkpt>
      <trkpt lat="42.70659" lon="1.66526">
        <ele>1107</ele>
        <time>2020-02-09T14:27:11Z</time>
      </trkpt>
      <trkpt lat="42.70661" lon="1.66523">
        <ele>1106.9</ele>
        <time>2020-02-09T14:27:13Z</time>
      </trkpt>
      <trkpt lat="42.70663" lon="1.6652">
        <ele>1106.9</ele>
        <time>2020-02-09T14:27:16Z</time>
      </trkpt>
      <trkpt lat="42.70666" lon="1.66516">
        <ele>1106.8</ele>
        <time>2020-02-09T14:27:22Z</time>
      </trkpt>
      <trkpt lat="42.70668" lon="1.66513">
        <ele>1106.8</ele>
        <time>2020-02-09T14:27:25Z</time>
      </trkpt>
      <trkpt lat="42.70671" lon="1.66512">
        <ele>1106.7</ele>
        <time>2020-02-09T14:27:27Z</time>
      </trkpt>
      <trkpt lat="42.70675" lon="1.66511">
        <ele>1106.7</ele>
        <time>2020-02-09T14:27:30Z</time>
      </trkpt>
      <trkpt lat="42.7068" lon="1.66509">
        <ele>1106.7</ele>
        <time>2020-02-09T14:27:32Z</time>
      </trkpt>
      <trkpt lat="42.70684" lon="1.66507">
        <ele>1106.6</ele>
        <time>2020-02-09T14:27:39Z</time>
      </trkpt>
      <trkpt lat="42.70689" lon="1.66507">
        <ele>1106.6</ele>
        <time>2020-02-09T14:27:43Z</time>
      </trkpt>
      <trkpt lat="42.70692" lon="1.66506">
        <ele>1106.5</ele>
        <time>2020-02-09T14:27:45Z</time>
      </trkpt>
      <trkpt lat="42.70695" lon="1.66506">
        <ele>1106.5</ele>
        <time>2020-02-09T14:27:47Z</time>
      </trkpt>
      <trkpt lat="42.70702" lon="1.66509">
        <ele>1106.4</ele>
        <time>2020-02-09T14:27:49Z</time>
      </trkpt>
      <trkpt lat="42.70707" lon="1.6651">
        <ele>1106.4</ele>
        <time>2020-02-09T14:27:53Z</time>
      </trkpt>
      <trkpt lat="42.70712" lon="1.66513">
        <ele>1106.3</ele>
        <time>2020-02-09T14:27:57Z</time>
      </trkpt>
      <trkpt lat="42.70715" lon="1.66511">
        <ele>1106.3</ele>
        <time>2020-02-09T14:28:01Z</time>
      </trkpt>
      <trkpt lat="42.7072" lon="1.66511">
        <ele>1106.2</ele>
        <time>2020-02-09T14:28:04Z</time>
      </trkpt>
      <trkpt lat="42.70724" lon="1.6651">
        <ele>1106.2</ele>
        <time>2020-02-09T14:28:11Z</time>
      </trkpt>
      <trkpt lat="42.70728" lon="1.66509">
        <ele>1106.1</ele>
        <time>2020-02-09T14:28:13Z</time>
      </trkpt>
      <trkpt lat="42.70732" lon="1.66506">
        <ele>1106.1</ele>
        <time>2020-02-09T14:28:15Z</time>
      </trkpt>
      <trkpt lat="42.70738" lon="1.66503">
        <ele>1106</ele>
        <time>2020-02-09T14:28:18Z</time>
      </trkpt>
      <trkpt lat="42.70743" lon="1.66497">
        <ele>1106</ele>
        <time>2020-02-09T14:28:20Z</time>
      </trkpt>
      <trkpt lat="42.70747" lon="1.66502">
        <ele>1105.9</ele>
        <time>2020-02-09T14:28:28Z</time>
      </trkpt>
      <trkpt lat="42.70749" lon="1.66505">
        <ele>1105.9</ele>
        <time>2020-02-09T14:28:30Z</time>
      </trkpt>
      <trkpt lat="42.70752" lon="1.66504">
        <ele>1105.8</ele>
        <time>2020-02-09T14:28:35Z</time>
      </trkpt>
      <trkpt lat="42.70755" lon="1.665">
        <ele>1105.8</ele>
        <time>2020-02-09T14:28:38Z</time>
      </trkpt>
      <trkpt lat="42.70757" lon="1.66498">
        <ele>1105.8</ele>
        <time>2020-02-09T14:28:40Z</time>
      </trkpt>
      <trkpt lat="42.70762" lon="1.66494">
        <ele>1105.7</ele>
        <time>2020-02-09T14:28:44Z</time>
      </trkpt>
      <trkpt lat="42.70764" lon="1.66493">
        <ele>1105.7</ele>
        <time>2020-02-09T14:28:46Z</time>
      </trkpt>
      <trkpt lat="42.70767" lon="1.66492">
        <ele>1105.7</ele>
        <time>2020-02-09T14:28:49Z</time>
      </trkpt>
      <trkpt lat="42.7077" lon="1.66496">
        <ele>1105.7</ele>
        <time>2020-02-09T14:28:53Z</time>
      </trkpt>
      <trkpt lat="42.70772" lon="1.66498">
        <ele>1105.6</ele>
        <time>2020-02-09T14:28:56Z</time>
      </trkpt>
      <trkpt lat="42.70771" lon="1.66503">
        <ele>1105.6</ele>
        <time>2020-02-09T14:29:03Z</time>
      </trkpt>
      <trkpt lat="42.70772" lon="1.66506">
        <ele>1105.6</ele>
        <time>2020-02-09T14:29:06Z</time>
      </trkpt>
      <trkpt lat="42.70775" lon="1.66511">
        <ele>1105.5</ele>
        <time>2020-02-09T14:29:11Z</time>
      </trkpt>
      <trkpt lat="42.70776" lon="1.66515">
        <ele>1105.5</ele>
        <time>2020-02-09T14:29:14Z</time>
      </trkpt>
      <trkpt lat="42.70777" lon="1.66518">
        <ele>1105.5</ele>
        <time>2020-02-09T14:29:18Z</time>
      </trkpt>
      <trkpt lat="42.70778" lon="1.66525">
        <ele>1105.4</ele>
        <time>2020-02-09T14:29:23Z</time>
      </trkpt>
      <trkpt lat="42.70778" lon="1.6653">
        <ele>1105.3</ele>
        <time>2020-02-09T14:29:25Z</time>
      </trkpt>
      <trkpt lat="42.70778" lon="1.66534">
        <ele>1105.3</ele>
        <time>2020-02-09T14:29:27Z</time>
      </trkpt>
      <trkpt lat="42.7078" lon="1.66538">
        <ele>1105.3</ele>
        <time>2020-02-09T14:29:30Z</time>
      </trkpt>
      <trkpt lat="42.70781" lon="1.66543">
        <ele>1105.2</ele>
        <time>2020-02-09T14:29:34Z</time>
      </trkpt>
      <trkpt lat="42.70782" lon="1.66548">
        <ele>1105.2</ele>
        <time>2020-02-09T14:29:37Z</time>
      </trkpt>
      <trkpt lat="42.70785" lon="1.66552">
        <ele>1105.2</ele>
        <time>2020-02-09T14:29:40Z</time>
      </trkpt>
      <trkpt lat="42.70789" lon="1.66557">
        <ele>1105.1</ele>
        <time>2020-02-09T14:29:44Z</time>
      </trkpt>
      <trkpt lat="42.70794" lon="1.6656">
        <ele>1105</ele>
        <time>2020-02-09T14:29:47Z</time>
      </trkpt>
      <trkpt lat="42.70797" lon="1.66561">
        <ele>1105</ele>
        <time>2020-02-09T14:29:49Z</time>
      </trkpt>
      <trkpt lat="42.708" lon="1.66565">
        <ele>1104.9</ele>
        <time>2020-02-09T14:29:53Z</time>
      </trkpt>
      <trkpt lat="42.70803" lon="1.66568">
        <ele>1104.9</ele>
        <time>2020-02-09T14:29:57Z</time>
      </trkpt>
      <trkpt lat="42.70808" lon="1.66568">
        <ele>1104.9</ele>
        <time>2020-02-09T14:30:00Z</time>
      </trkpt>
      <trkpt lat="42.70811" lon="1.66569">
        <ele>1104.8</ele>
        <time>2020-02-09T14:30:02Z</time>
      </trkpt>
      <trkpt lat="42.70814" lon="1.66569">
        <ele>1104.8</ele>
        <time>2020-02-09T14:30:05Z</time>
      </trkpt>
      <trkpt lat="42.70816" lon="1.66572">
        <ele>1104.8</ele>
        <time>2020-02-09T14:30:10Z</time>
      </trkpt>
      <trkpt lat="42.70818" lon="1.66575">
        <ele>1104.7</ele>
        <time>2020-02-09T14:30:14Z</time>
      </trkpt>
      <trkpt lat="42.70821" lon="1.66578">
        <ele>1104.7</ele>
        <time>2020-02-09T14:30:18Z</time>
      </trkpt>
      <trkpt lat="42.70823" lon="1.66579">
        <ele>1104.7</ele>
        <time>2020-02-09T14:30:21Z</time>
      </trkpt>
      <trkpt lat="42.70829" lon="1.66581">
        <ele>1104.6</ele>
        <time>2020-02-09T14:30:25Z</time>
      </trkpt>
      <trkpt lat="42.70831" lon="1.66583">
        <ele>1104.6</ele>
        <time>2020-02-09T14:30:27Z</time>
      </trkpt>
      <trkpt lat="42.70835" lon="1.66586">
        <ele>1104.5</ele>
        <time>2020-02-09T14:30:31Z</time>
      </trkpt>
      <trkpt lat="42.70839" lon="1.66589">
        <ele>1104.5</ele>
        <time>2020-02-09T14:30:34Z</time>
      </trkpt>
      <trkpt lat="42.70841" lon="1.66591">
        <ele>1104.5</ele>
        <time>2020-02-09T14:30:36Z</time>
      </trkpt>
      <trkpt lat="42.70844" lon="1.66595">
        <ele>1104.4</ele>
        <time>2020-02-09T14:30:40Z</time>
      </trkpt>
      <trkpt lat="42.70848" lon="1.66598">
        <ele>1104.4</ele>
        <time>2020-02-09T14:30:42Z</time>
      </trkpt>
      <trkpt lat="42.70852" lon="1.66599">
        <ele>1104.4</ele>
        <time>2020-02-09T14:30:50Z</time>
      </trkpt>
      <trkpt lat="42.70856" lon="1.66599">
        <ele>1104.3</ele>
        <time>2020-02-09T14:30:55Z</time>
      </trkpt>
      <trkpt lat="42.70862" lon="1.66599">
        <ele>1104.3</ele>
        <time>2020-02-09T14:30:59Z</time>
      </trkpt>
      <trkpt lat="42.70865" lon="1.66599">
        <ele>1104.2</ele>
        <time>2020-02-09T14:31:01Z</time>
      </trkpt>
      <trkpt lat="42.7087" lon="1.66598">
        <ele>1104.2</ele>
        <time>2020-02-09T14:31:04Z</time>
      </trkpt>
      <trkpt lat="42.70875" lon="1.66597">
        <ele>1104.1</ele>
        <time>2020-02-09T14:31:07Z</time>
      </trkpt>
      <trkpt lat="42.70878" lon="1.66596">
        <ele>1104.1</ele>
        <time>2020-02-09T14:31:10Z</time>
      </trkpt>
      <trkpt lat="42.70881" lon="1.66595">
        <ele>1104</ele>
        <time>2020-02-09T14:31:13Z</time>
      </trkpt>
      <trkpt lat="42.70885" lon="1.6659">
        <ele>1104</ele>
        <time>2020-02-09T14:31:17Z</time>
      </trkpt>
      <trkpt lat="42.70887" lon="1.66587">
        <ele>1104</ele>
        <time>2020-02-09T14:31:19Z</time>
      </trkpt>
      <trkpt lat="42.70888" lon="1.66583">
        <ele>1103.9</ele>
        <time>2020-02-09T14:31:21Z</time>
      </trkpt>
      <trkpt lat="42.7089" lon="1.6658">
        <ele>1103.9</ele>
        <time>2020-02-09T14:31:23Z</time>
      </trkpt>
      <trkpt lat="42.70892" lon="1.66577">
        <ele>1103.9</ele>
        <time>2020-02-09T14:31:25Z</time>
      </trkpt>
      <trkpt lat="42.70895" lon="1.66574">
        <ele>1103.8</ele>
        <time>2020-02-09T14:31:28Z</time>
      </trkpt>
      <trkpt lat="42.70899" lon="1.66571">
        <ele>1103.8</ele>
        <time>2020-02-09T14:31:32Z</time>
      </trkpt>
      <trkpt lat="42.70902" lon="1.66568">
        <ele>1103.7</ele>
        <time>2020-02-09T14:31:37Z</time>
      </trkpt>
      <trkpt lat="42.70905" lon="1.66566">
        <ele>1103.7</ele>
        <time>2020-02-09T14:31:41Z</time>
      </trkpt>
      <trkpt lat="42.70908" lon="1.66566">
        <ele>1103.7</ele>
        <time>2020-02-09T14:31:49Z</time>
      </trkpt>
      <trkpt lat="42.70911" lon="1.66564">
        <ele>1103.6</ele>
        <time>2020-02-09T14:31:53Z</time>
      </trkpt>
      <trkpt lat="42.70913" lon="1.66565">
        <ele>1103.6</ele>
        <time>2020-02-09T14:32:00Z</time>
      </trkpt>
      <trkpt lat="42.70914" lon="1.66561">
        <ele>1103.6</ele>
        <time>2020-02-09T14:32:11Z</time>
      </trkpt>
      <trkpt lat="42.70916" lon="1.66557">
        <ele>1103.5</ele>
        <time>2020-02-09T14:32:15Z</time>
      </trkpt>
      <trkpt lat="42.70919" lon="1.66554">
        <ele>1103.5</ele>
        <time>2020-02-09T14:32:17Z</time>
      </trkpt>
      <trkpt lat="42.70922" lon="1.66552">
        <ele>1103.5</ele>
        <time>2020-02-09T14:32:19Z</time>
      </trkpt>
      <trkpt lat="42.70925" lon="1.66549">
        <ele>1103.4</ele>
        <time>2020-02-09T14:32:21Z</time>
      </trkpt>
      <trkpt lat="42.70927" lon="1.66546">
        <ele>1103.4</ele>
        <time>2020-02-09T14:32:23Z</time>
      </trkpt>
      <trkpt lat="42.7093" lon="1.66543">
        <ele>1103.4</ele>
        <time>2020-02-09T14:32:25Z</time>
      </trkpt>
      <trkpt lat="42.70933" lon="1.66539">
        <ele>1103.3</ele>
        <time>2020-02-09T14:32:27Z</time>
      </trkpt>
      <trkpt lat="42.70936" lon="1.66535">
        <ele>1103.3</ele>
        <time>2020-02-09T14:32:29Z</time>
      </trkpt>
      <trkpt lat="42.70945" lon="1.66524">
        <ele>1103.1</ele>
        <time>2020-02-09T14:32:32Z</time>
      </trkpt>
      <trkpt lat="42.7095" lon="1.66524">
        <ele>1103.1</ele>
        <time>2020-02-09T14:32:40Z</time>
      </trkpt>
      <trkpt lat="42.70954" lon="1.66523">
        <ele>1103</ele>
        <time>2020-02-09T14:32:43Z</time>
      </trkpt>
      <trkpt lat="42.70957" lon="1.66522">
        <ele>1103</ele>
        <time>2020-02-09T14:32:50Z</time>
      </trkpt>
      <trkpt lat="42.70961" lon="1.66521">
        <ele>1103</ele>
        <time>2020-02-09T14:32:52Z</time>
      </trkpt>
      <trkpt lat="42.70964" lon="1.6652">
        <ele>1102.9</ele>
        <time>2020-02-09T14:32:54Z</time>
      </trkpt>
      <trkpt lat="42.70968" lon="1.66519">
        <ele>1102.9</ele>
        <time>2020-02-09T14:32:56Z</time>
      </trkpt>
      <trkpt lat="42.70971" lon="1.66518">
        <ele>1102.9</ele>
        <time>2020-02-09T14:32:59Z</time>
      </trkpt>
      <trkpt lat="42.70974" lon="1.66517">
        <ele>1102.9</ele>
        <time>2020-02-09T14:33:02Z</time>
      </trkpt>
      <trkpt lat="42.70978" lon="1.66516">
        <ele>1102.8</ele>
        <time>2020-02-09T14:33:06Z</time>
      </trkpt>
      <trkpt lat="42.70981" lon="1.66515">
        <ele>1102.8</ele>
        <time>2020-02-09T14:33:07Z</time>
      </trkpt>
      <trkpt lat="42.70984" lon="1.66515">
        <ele>1102.7</ele>
        <time>2020-02-09T14:33:12Z</time>
      </trkpt>
      <trkpt lat="42.70987" lon="1.66514">
        <ele>1102.7</ele>
        <time>2020-02-09T14:33:14Z</time>
      </trkpt>
      <trkpt lat="42.70991" lon="1.66512">
        <ele>1102.6</ele>
        <time>2020-02-09T14:33:16Z</time>
      </trkpt>
      <trkpt lat="42.70996" lon="1.6651">
        <ele>1102.6</ele>
        <time>2020-02-09T14:33:19Z</time>
      </trkpt>
      <trkpt lat="42.71" lon="1.66509">
        <ele>1102.5</ele>
        <time>2020-02-09T14:33:21Z</time>
      </trkpt>
      <trkpt lat="42.71007" lon="1.66509">
        <ele>1102.5</ele>
        <time>2020-02-09T14:33:24Z</time>
      </trkpt>
      <trkpt lat="42.71013" lon="1.66507">
        <ele>1102.4</ele>
        <time>2020-02-09T14:33:27Z</time>
      </trkpt>
      <trkpt lat="42.71016" lon="1.66506">
        <ele>1102.4</ele>
        <time>2020-02-09T14:33:29Z</time>
      </trkpt>
      <trkpt lat="42.71019" lon="1.66505">
        <ele>1102.3</ele>
        <time>2020-02-09T14:33:33Z</time>
      </trkpt>
      <trkpt lat="42.7101" lon="1.66514">
        <ele>1102.2</ele>
        <time>2020-02-09T14:33:41Z</time>
      </trkpt>
      <trkpt lat="42.71015" lon="1.66513">
        <ele>1102.2</ele>
        <time>2020-02-09T14:33:49Z</time>
      </trkpt>
      <trkpt lat="42.71018" lon="1.66512">
        <ele>1102.1</ele>
        <time>2020-02-09T14:33:51Z</time>
      </trkpt>
      <trkpt lat="42.71021" lon="1.66511">
        <ele>1102.1</ele>
        <time>2020-02-09T14:33:53Z</time>
      </trkpt>
      <trkpt lat="42.71028" lon="1.6651">
        <ele>1102.1</ele>
        <time>2020-02-09T14:33:56Z</time>
      </trkpt>
      <trkpt lat="42.71031" lon="1.6651">
        <ele>1102</ele>
        <time>2020-02-09T14:33:57Z</time>
      </trkpt>
      <trkpt lat="42.71037" lon="1.66508">
        <ele>1102</ele>
        <time>2020-02-09T14:33:59Z</time>
      </trkpt>
      <trkpt lat="42.71043" lon="1.66504">
        <ele>1101.9</ele>
        <time>2020-02-09T14:34:01Z</time>
      </trkpt>
      <trkpt lat="42.71045" lon="1.66502">
        <ele>1101.9</ele>
        <time>2020-02-09T14:34:02Z</time>
      </trkpt>
      <trkpt lat="42.71048" lon="1.665">
        <ele>1101.9</ele>
        <time>2020-02-09T14:34:03Z</time>
      </trkpt>
      <trkpt lat="42.71051" lon="1.66498">
        <ele>1101.8</ele>
        <time>2020-02-09T14:34:04Z</time>
      </trkpt>
      <trkpt lat="42.71055" lon="1.66494">
        <ele>1101.7</ele>
        <time>2020-02-09T14:34:06Z</time>
      </trkpt>
      <trkpt lat="42.7106" lon="1.6649">
        <ele>1101.7</ele>
        <time>2020-02-09T14:34:08Z</time>
      </trkpt>
      <trkpt lat="42.71086" lon="1.6647">
        <ele>1101.4</ele>
        <time>2020-02-09T14:34:10Z</time>
      </trkpt>
      <trkpt lat="42.71083" lon="1.66474">
        <ele>1101.4</ele>
        <time>2020-02-09T14:34:18Z</time>
      </trkpt>
      <trkpt lat="42.7108" lon="1.66478">
        <ele>1101.4</ele>
        <time>2020-02-09T14:34:34Z</time>
      </trkpt>
      <trkpt lat="42.71075" lon="1.66482">
        <ele>1101.3</ele>
        <time>2020-02-09T14:34:37Z</time>
      </trkpt>
      <trkpt lat="42.71071" lon="1.66483">
        <ele>1101.3</ele>
        <time>2020-02-09T14:34:41Z</time>
      </trkpt>
      <trkpt lat="42.71068" lon="1.66483">
        <ele>1101.3</ele>
        <time>2020-02-09T14:34:43Z</time>
      </trkpt>
      <trkpt lat="42.71064" lon="1.66483">
        <ele>1101.3</ele>
        <time>2020-02-09T14:34:45Z</time>
      </trkpt>
      <trkpt lat="42.71058" lon="1.66482">
        <ele>1101.3</ele>
        <time>2020-02-09T14:34:47Z</time>
      </trkpt>
      <trkpt lat="42.71052" lon="1.66481">
        <ele>1101.3</ele>
        <time>2020-02-09T14:34:49Z</time>
      </trkpt>
      <trkpt lat="42.71046" lon="1.66483">
        <ele>1101.3</ele>
        <time>2020-02-09T14:34:51Z</time>
      </trkpt>
      <trkpt lat="42.71039" lon="1.66486">
        <ele>1101.4</ele>
        <time>2020-02-09T14:34:54Z</time>
      </trkpt>
      <trkpt lat="42.7102" lon="1.66497">
        <ele>1101.8</ele>
        <time>2020-02-09T14:34:56Z</time>
      </trkpt>
      <trkpt lat="42.71018" lon="1.66501">
        <ele>1101.9</ele>
        <time>2020-02-09T14:34:59Z</time>
      </trkpt>
      <trkpt lat="42.71017" lon="1.66498">
        <ele>1101.9</ele>
        <time>2020-02-09T14:35:15Z</time>
      </trkpt>
      <trkpt lat="42.71014" lon="1.665">
        <ele>1101.9</ele>
        <time>2020-02-09T14:35:19Z</time>
      </trkpt>
      <trkpt lat="42.71038" lon="1.66488">
        <ele>1102.1</ele>
        <time>2020-02-09T14:35:26Z</time>
      </trkpt>
      <trkpt lat="42.71041" lon="1.66486">
        <ele>1102.1</ele>
        <time>2020-02-09T14:35:29Z</time>
      </trkpt>
      <trkpt lat="42.71035" lon="1.66491">
        <ele>1102.1</ele>
        <time>2020-02-09T14:35:50Z</time>
      </trkpt>
      <trkpt lat="42.71031" lon="1.66492">
        <ele>1102.1</ele>
        <time>2020-02-09T14:36:00Z</time>
      </trkpt>
      <trkpt lat="42.71094" lon="1.66563">
        <ele>1099.8</ele>
        <time>2020-02-09T14:54:30Z</time>
      </trkpt>
      <trkpt lat="42.71098" lon="1.66564">
        <ele>1099.6</ele>
        <time>2020-02-09T14:54:31Z</time>
      </trkpt>
      <trkpt lat="42.71089" lon="1.66562">
        <ele>1099.2</ele>
        <time>2020-02-09T14:54:32Z</time>
      </trkpt>
      <trkpt lat="42.71098" lon="1.66561">
        <ele>1098.6</ele>
        <time>2020-02-09T14:54:33Z</time>
      </trkpt>
      <trkpt lat="42.71105" lon="1.6656">
        <ele>1098.1</ele>
        <time>2020-02-09T14:54:36Z</time>
      </trkpt>
      <trkpt lat="42.71101" lon="1.66567">
        <ele>1097.7</ele>
        <time>2020-02-09T14:54:38Z</time>
      </trkpt>
      <trkpt lat="42.71103" lon="1.6657">
        <ele>1097.4</ele>
        <time>2020-02-09T14:54:41Z</time>
      </trkpt>
      <trkpt lat="42.71106" lon="1.66571">
        <ele>1097.2</ele>
        <time>2020-02-09T14:54:49Z</time>
      </trkpt>
      <trkpt lat="42.71109" lon="1.66571">
        <ele>1097.1</ele>
        <time>2020-02-09T14:54:52Z</time>
      </trkpt>
      <trkpt lat="42.71113" lon="1.6657">
        <ele>1096.8</ele>
        <time>2020-02-09T14:54:53Z</time>
      </trkpt>
      <trkpt lat="42.71116" lon="1.66569">
        <ele>1096.6</ele>
        <time>2020-02-09T14:54:56Z</time>
      </trkpt>
      <trkpt lat="42.71129" lon="1.66565">
        <ele>1095.4</ele>
        <time>2020-02-09T14:55:01Z</time>
      </trkpt>
      <trkpt lat="42.71132" lon="1.66565">
        <ele>1095</ele>
        <time>2020-02-09T14:55:05Z</time>
      </trkpt>
      <trkpt lat="42.71143" lon="1.66565">
        <ele>1093.8</ele>
        <time>2020-02-09T14:55:09Z</time>
      </trkpt>
      <trkpt lat="42.71148" lon="1.66564">
        <ele>1093.3</ele>
        <time>2020-02-09T14:55:14Z</time>
      </trkpt>
      <trkpt lat="42.71151" lon="1.66565">
        <ele>1092.8</ele>
        <time>2020-02-09T14:55:18Z</time>
      </trkpt>
      <trkpt lat="42.71159" lon="1.66568">
        <ele>1091.9</ele>
        <time>2020-02-09T14:55:21Z</time>
      </trkpt>
      <trkpt lat="42.71165" lon="1.66571">
        <ele>1091.3</ele>
        <time>2020-02-09T14:55:26Z</time>
      </trkpt>
      <trkpt lat="42.71169" lon="1.66569">
        <ele>1090.9</ele>
        <time>2020-02-09T14:55:33Z</time>
      </trkpt>
      <trkpt lat="42.7117" lon="1.66566">
        <ele>1090.6</ele>
        <time>2020-02-09T14:55:36Z</time>
      </trkpt>
      <trkpt lat="42.71173" lon="1.66562">
        <ele>1090.2</ele>
        <time>2020-02-09T14:55:44Z</time>
      </trkpt>
      <trkpt lat="42.71175" lon="1.66559">
        <ele>1089.9</ele>
        <time>2020-02-09T14:55:47Z</time>
      </trkpt>
      <trkpt lat="42.71175" lon="1.66555">
        <ele>1089.7</ele>
        <time>2020-02-09T14:55:51Z</time>
      </trkpt>
      <trkpt lat="42.71171" lon="1.66555">
        <ele>1089.4</ele>
        <time>2020-02-09T14:55:56Z</time>
      </trkpt>
      <trkpt lat="42.71168" lon="1.66552">
        <ele>1089.2</ele>
        <time>2020-02-09T14:56:08Z</time>
      </trkpt>
      <trkpt lat="42.7116" lon="1.66547">
        <ele>1088.3</ele>
        <time>2020-02-09T14:56:13Z</time>
      </trkpt>
      <trkpt lat="42.71157" lon="1.66544">
        <ele>1088</ele>
        <time>2020-02-09T14:56:18Z</time>
      </trkpt>
      <trkpt lat="42.71154" lon="1.66544">
        <ele>1087.6</ele>
        <time>2020-02-09T14:56:24Z</time>
      </trkpt>
      <trkpt lat="42.71147" lon="1.66544">
        <ele>1087.1</ele>
        <time>2020-02-09T14:56:27Z</time>
      </trkpt>
      <trkpt lat="42.71142" lon="1.66538">
        <ele>1086.5</ele>
        <time>2020-02-09T14:56:36Z</time>
      </trkpt>
      <trkpt lat="42.71139" lon="1.66535">
        <ele>1086.2</ele>
        <time>2020-02-09T14:56:42Z</time>
      </trkpt>
      <trkpt lat="42.71129" lon="1.66527">
        <ele>1084.9</ele>
        <time>2020-02-09T14:56:46Z</time>
      </trkpt>
      <trkpt lat="42.71126" lon="1.66525">
        <ele>1084.6</ele>
        <time>2020-02-09T14:56:51Z</time>
      </trkpt>
      <trkpt lat="42.71123" lon="1.66522">
        <ele>1084.2</ele>
        <time>2020-02-09T14:56:55Z</time>
      </trkpt>
      <trkpt lat="42.71121" lon="1.6652">
        <ele>1084</ele>
        <time>2020-02-09T14:56:57Z</time>
      </trkpt>
      <trkpt lat="42.71118" lon="1.66518">
        <ele>1083.7</ele>
        <time>2020-02-09T14:56:59Z</time>
      </trkpt>
      <trkpt lat="42.71114" lon="1.66516">
        <ele>1083.4</ele>
        <time>2020-02-09T14:57:01Z</time>
      </trkpt>
      <trkpt lat="42.71109" lon="1.66513">
        <ele>1082.8</ele>
        <time>2020-02-09T14:57:04Z</time>
      </trkpt>
      <trkpt lat="42.71107" lon="1.66511">
        <ele>1082.5</ele>
        <time>2020-02-09T14:57:06Z</time>
      </trkpt>
      <trkpt lat="42.71098" lon="1.66502">
        <ele>1081.4</ele>
        <time>2020-02-09T14:57:09Z</time>
      </trkpt>
      <trkpt lat="42.711" lon="1.66492">
        <ele>1080.6</ele>
        <time>2020-02-09T14:57:15Z</time>
      </trkpt>
      <trkpt lat="42.71102" lon="1.6649">
        <ele>1080.3</ele>
        <time>2020-02-09T14:57:17Z</time>
      </trkpt>
      <trkpt lat="42.71104" lon="1.66484">
        <ele>1079.8</ele>
        <time>2020-02-09T14:57:23Z</time>
      </trkpt>
      <trkpt lat="42.71107" lon="1.66481">
        <ele>1079.6</ele>
        <time>2020-02-09T14:57:26Z</time>
      </trkpt>
      <trkpt lat="42.71109" lon="1.66476">
        <ele>1079.4</ele>
        <time>2020-02-09T14:57:29Z</time>
      </trkpt>
      <trkpt lat="42.71113" lon="1.66469">
        <ele>1078.9</ele>
        <time>2020-02-09T14:57:34Z</time>
      </trkpt>
      <trkpt lat="42.71116" lon="1.66465">
        <ele>1078.6</ele>
        <time>2020-02-09T14:57:37Z</time>
      </trkpt>
      <trkpt lat="42.71118" lon="1.66462">
        <ele>1078.4</ele>
        <time>2020-02-09T14:57:43Z</time>
      </trkpt>
      <trkpt lat="42.71124" lon="1.66464">
        <ele>1077.8</ele>
        <time>2020-02-09T14:57:46Z</time>
      </trkpt>
      <trkpt lat="42.7113" lon="1.66464">
        <ele>1077.4</ele>
        <time>2020-02-09T14:57:49Z</time>
      </trkpt>
      <trkpt lat="42.71135" lon="1.66465">
        <ele>1077</ele>
        <time>2020-02-09T14:57:54Z</time>
      </trkpt>
      <trkpt lat="42.71139" lon="1.66468">
        <ele>1076.6</ele>
        <time>2020-02-09T14:57:58Z</time>
      </trkpt>
      <trkpt lat="42.71142" lon="1.66471">
        <ele>1076.3</ele>
        <time>2020-02-09T14:57:59Z</time>
      </trkpt>
      <trkpt lat="42.71149" lon="1.66477">
        <ele>1075.6</ele>
        <time>2020-02-09T14:58:05Z</time>
      </trkpt>
      <trkpt lat="42.71155" lon="1.66479">
        <ele>1074.9</ele>
        <time>2020-02-09T14:58:10Z</time>
      </trkpt>
      <trkpt lat="42.71159" lon="1.66481">
        <ele>1074.5</ele>
        <time>2020-02-09T14:58:14Z</time>
      </trkpt>
      <trkpt lat="42.71163" lon="1.66484">
        <ele>1074.1</ele>
        <time>2020-02-09T14:58:18Z</time>
      </trkpt>
      <trkpt lat="42.71166" lon="1.66486">
        <ele>1073.7</ele>
        <time>2020-02-09T14:58:21Z</time>
      </trkpt>
      <trkpt lat="42.71171" lon="1.66492">
        <ele>1073</ele>
        <time>2020-02-09T14:58:25Z</time>
      </trkpt>
      <trkpt lat="42.71175" lon="1.66493">
        <ele>1072.6</ele>
        <time>2020-02-09T14:58:30Z</time>
      </trkpt>
      <trkpt lat="42.71179" lon="1.66495">
        <ele>1072</ele>
        <time>2020-02-09T14:58:32Z</time>
      </trkpt>
      <trkpt lat="42.71182" lon="1.66496">
        <ele>1071.7</ele>
        <time>2020-02-09T14:58:36Z</time>
      </trkpt>
      <trkpt lat="42.71185" lon="1.66497">
        <ele>1071.3</ele>
        <time>2020-02-09T14:58:39Z</time>
      </trkpt>
      <trkpt lat="42.71191" lon="1.66496">
        <ele>1070.7</ele>
        <time>2020-02-09T14:58:41Z</time>
      </trkpt>
      <trkpt lat="42.71196" lon="1.66497">
        <ele>1070.2</ele>
        <time>2020-02-09T14:58:47Z</time>
      </trkpt>
      <trkpt lat="42.71201" lon="1.66498">
        <ele>1069.7</ele>
        <time>2020-02-09T14:58:52Z</time>
      </trkpt>
      <trkpt lat="42.71205" lon="1.66498">
        <ele>1069.3</ele>
        <time>2020-02-09T14:58:55Z</time>
      </trkpt>
      <trkpt lat="42.71209" lon="1.66498">
        <ele>1068.9</ele>
        <time>2020-02-09T14:58:57Z</time>
      </trkpt>
      <trkpt lat="42.71212" lon="1.66497">
        <ele>1068.6</ele>
        <time>2020-02-09T14:59:00Z</time>
      </trkpt>
      <trkpt lat="42.71219" lon="1.66496">
        <ele>1067.8</ele>
        <time>2020-02-09T14:59:02Z</time>
      </trkpt>
      <trkpt lat="42.71221" lon="1.66498">
        <ele>1067.4</ele>
        <time>2020-02-09T14:59:07Z</time>
      </trkpt>
      <trkpt lat="42.71226" lon="1.66505">
        <ele>1066.7</ele>
        <time>2020-02-09T14:59:11Z</time>
      </trkpt>
      <trkpt lat="42.71228" lon="1.66508">
        <ele>1066.4</ele>
        <time>2020-02-09T14:59:16Z</time>
      </trkpt>
      <trkpt lat="42.71232" lon="1.66514">
        <ele>1065.9</ele>
        <time>2020-02-09T14:59:19Z</time>
      </trkpt>
      <trkpt lat="42.71236" lon="1.66515">
        <ele>1065.5</ele>
        <time>2020-02-09T14:59:24Z</time>
      </trkpt>
      <trkpt lat="42.7124" lon="1.66517">
        <ele>1065.1</ele>
        <time>2020-02-09T14:59:26Z</time>
      </trkpt>
      <trkpt lat="42.71243" lon="1.66521">
        <ele>1064.7</ele>
        <time>2020-02-09T14:59:32Z</time>
      </trkpt>
      <trkpt lat="42.71246" lon="1.66522">
        <ele>1064.4</ele>
        <time>2020-02-09T14:59:36Z</time>
      </trkpt>
      <trkpt lat="42.71248" lon="1.66524">
        <ele>1064.1</ele>
        <time>2020-02-09T14:59:39Z</time>
      </trkpt>
      <trkpt lat="42.71251" lon="1.66525">
        <ele>1063.8</ele>
        <time>2020-02-09T14:59:44Z</time>
      </trkpt>
      <trkpt lat="42.71254" lon="1.66526">
        <ele>1063.4</ele>
        <time>2020-02-09T14:59:49Z</time>
      </trkpt>
      <trkpt lat="42.71257" lon="1.66528">
        <ele>1063.1</ele>
        <time>2020-02-09T14:59:54Z</time>
      </trkpt>
      <trkpt lat="42.71259" lon="1.6653">
        <ele>1062.8</ele>
        <time>2020-02-09T14:59:56Z</time>
      </trkpt>
      <trkpt lat="42.71262" lon="1.66532">
        <ele>1062.6</ele>
        <time>2020-02-09T15:00:01Z</time>
      </trkpt>
      <trkpt lat="42.71265" lon="1.66531">
        <ele>1062.3</ele>
        <time>2020-02-09T15:00:05Z</time>
      </trkpt>
      <trkpt lat="42.7127" lon="1.6653">
        <ele>1061.8</ele>
        <time>2020-02-09T15:00:07Z</time>
      </trkpt>
      <trkpt lat="42.71275" lon="1.66529">
        <ele>1061.4</ele>
        <time>2020-02-09T15:00:12Z</time>
      </trkpt>
      <trkpt lat="42.71283" lon="1.66531">
        <ele>1060.8</ele>
        <time>2020-02-09T15:00:15Z</time>
      </trkpt>
      <trkpt lat="42.71286" lon="1.66532">
        <ele>1060.5</ele>
        <time>2020-02-09T15:00:19Z</time>
      </trkpt>
      <trkpt lat="42.71291" lon="1.66533">
        <ele>1060</ele>
        <time>2020-02-09T15:00:23Z</time>
      </trkpt>
      <trkpt lat="42.713" lon="1.66532">
        <ele>1059.2</ele>
        <time>2020-02-09T15:00:26Z</time>
      </trkpt>
      <trkpt lat="42.71304" lon="1.66534">
        <ele>1058.9</ele>
        <time>2020-02-09T15:00:29Z</time>
      </trkpt>
      <trkpt lat="42.71306" lon="1.66536">
        <ele>1058.7</ele>
        <time>2020-02-09T15:00:31Z</time>
      </trkpt>
      <trkpt lat="42.71313" lon="1.66538">
        <ele>1058.1</ele>
        <time>2020-02-09T15:00:33Z</time>
      </trkpt>
      <trkpt lat="42.71316" lon="1.6654">
        <ele>1057.9</ele>
        <time>2020-02-09T15:00:36Z</time>
      </trkpt>
      <trkpt lat="42.71322" lon="1.66544">
        <ele>1057.3</ele>
        <time>2020-02-09T15:00:39Z</time>
      </trkpt>
      <trkpt lat="42.71325" lon="1.66547">
        <ele>1056.8</ele>
        <time>2020-02-09T15:00:46Z</time>
      </trkpt>
      <trkpt lat="42.71328" lon="1.66558">
        <ele>1056.1</ele>
        <time>2020-02-09T15:00:50Z</time>
      </trkpt>
      <trkpt lat="42.7133" lon="1.66562">
        <ele>1055.8</ele>
        <time>2020-02-09T15:00:55Z</time>
      </trkpt>
      <trkpt lat="42.71332" lon="1.66565">
        <ele>1055.6</ele>
        <time>2020-02-09T15:00:57Z</time>
      </trkpt>
      <trkpt lat="42.71336" lon="1.66568">
        <ele>1055.2</ele>
        <time>2020-02-09T15:01:01Z</time>
      </trkpt>
      <trkpt lat="42.71338" lon="1.6657">
        <ele>1054.9</ele>
        <time>2020-02-09T15:01:04Z</time>
      </trkpt>
      <trkpt lat="42.71342" lon="1.66571">
        <ele>1054.7</ele>
        <time>2020-02-09T15:01:07Z</time>
      </trkpt>
      <trkpt lat="42.71348" lon="1.66571">
        <ele>1054.3</ele>
        <time>2020-02-09T15:01:11Z</time>
      </trkpt>
      <trkpt lat="42.71351" lon="1.66571">
        <ele>1054.1</ele>
        <time>2020-02-09T15:01:15Z</time>
      </trkpt>
      <trkpt lat="42.7136" lon="1.66568">
        <ele>1053.5</ele>
        <time>2020-02-09T15:01:19Z</time>
      </trkpt>
      <trkpt lat="42.71366" lon="1.6657">
        <ele>1053.1</ele>
        <time>2020-02-09T15:01:25Z</time>
      </trkpt>
      <trkpt lat="42.71369" lon="1.66571">
        <ele>1053</ele>
        <time>2020-02-09T15:01:31Z</time>
      </trkpt>
      <trkpt lat="42.71369" lon="1.66575">
        <ele>1052.9</ele>
        <time>2020-02-09T15:01:49Z</time>
      </trkpt>
      <trkpt lat="42.71373" lon="1.66578">
        <ele>1052.7</ele>
        <time>2020-02-09T15:01:54Z</time>
      </trkpt>
      <trkpt lat="42.71376" lon="1.6658">
        <ele>1052.5</ele>
        <time>2020-02-09T15:01:57Z</time>
      </trkpt>
      <trkpt lat="42.7138" lon="1.66582">
        <ele>1052.3</ele>
        <time>2020-02-09T15:02:00Z</time>
      </trkpt>
      <trkpt lat="42.71385" lon="1.66582">
        <ele>1052</ele>
        <time>2020-02-09T15:02:03Z</time>
      </trkpt>
      <trkpt lat="42.71388" lon="1.66584">
        <ele>1051.9</ele>
        <time>2020-02-09T15:02:05Z</time>
      </trkpt>
      <trkpt lat="42.71392" lon="1.66585">
        <ele>1051.7</ele>
        <time>2020-02-09T15:02:07Z</time>
      </trkpt>
      <trkpt lat="42.71415" lon="1.66584">
        <ele>1050.4</ele>
        <time>2020-02-09T15:02:10Z</time>
      </trkpt>
      <trkpt lat="42.71418" lon="1.66585">
        <ele>1050.3</ele>
        <time>2020-02-09T15:02:18Z</time>
      </trkpt>
      <trkpt lat="42.71422" lon="1.66585">
        <ele>1050.1</ele>
        <time>2020-02-09T15:02:25Z</time>
      </trkpt>
      <trkpt lat="42.71425" lon="1.66582">
        <ele>1049.9</ele>
        <time>2020-02-09T15:02:29Z</time>
      </trkpt>
      <trkpt lat="42.71439" lon="1.66571">
        <ele>1049.2</ele>
        <time>2020-02-09T15:02:39Z</time>
      </trkpt>
      <trkpt lat="42.71442" lon="1.66567">
        <ele>1049.2</ele>
        <time>2020-02-09T15:02:42Z</time>
      </trkpt>
      <trkpt lat="42.71441" lon="1.66564">
        <ele>1049.2</ele>
        <time>2020-02-09T15:02:59Z</time>
      </trkpt>
      <trkpt lat="42.7144" lon="1.66561">
        <ele>1049.2</ele>
        <time>2020-02-09T15:03:10Z</time>
      </trkpt>
      <trkpt lat="42.71454" lon="1.66547">
        <ele>1050.9</ele>
        <time>2020-02-09T15:03:16Z</time>
      </trkpt>
      <trkpt lat="42.71466" lon="1.6654">
        <ele>1050.2</ele>
        <time>2020-02-09T15:03:25Z</time>
      </trkpt>
      <trkpt lat="42.7147" lon="1.66539">
        <ele>1050.1</ele>
        <time>2020-02-09T15:03:27Z</time>
      </trkpt>
      <trkpt lat="42.71472" lon="1.66536">
        <ele>1050</ele>
        <time>2020-02-09T15:03:36Z</time>
      </trkpt>
      <trkpt lat="42.71476" lon="1.66535">
        <ele>1049.9</ele>
        <time>2020-02-09T15:03:39Z</time>
      </trkpt>
      <trkpt lat="42.71501" lon="1.66526">
        <ele>1049.3</ele>
        <time>2020-02-09T15:03:42Z</time>
      </trkpt>
      <trkpt lat="42.71492" lon="1.66524">
        <ele>1049.1</ele>
        <time>2020-02-09T15:03:59Z</time>
      </trkpt>
      <trkpt lat="42.71489" lon="1.66524">
        <ele>1049.1</ele>
        <time>2020-02-09T15:04:03Z</time>
      </trkpt>
      <trkpt lat="42.71489" lon="1.66529">
        <ele>1049</ele>
        <time>2020-02-09T15:04:11Z</time>
      </trkpt>
      <trkpt lat="42.71491" lon="1.66526">
        <ele>1049</ele>
        <time>2020-02-09T15:12:47Z</time>
      </trkpt>
      <trkpt lat="42.71493" lon="1.66531">
        <ele>1048.9</ele>
        <time>2020-02-09T15:13:27Z</time>
      </trkpt>
      <trkpt lat="42.71494" lon="1.66534">
        <ele>1048.8</ele>
        <time>2020-02-09T15:13:45Z</time>
      </trkpt>
      <trkpt lat="42.71497" lon="1.66535">
        <ele>1048.8</ele>
        <time>2020-02-09T15:14:10Z</time>
      </trkpt>
      <trkpt lat="42.715" lon="1.66535">
        <ele>1048.7</ele>
        <time>2020-02-09T15:14:15Z</time>
      </trkpt>
      <trkpt lat="42.71503" lon="1.66535">
        <ele>1048.6</ele>
        <time>2020-02-09T15:14:49Z</time>
      </trkpt>
      <trkpt lat="42.71506" lon="1.66535">
        <ele>1048.6</ele>
        <time>2020-02-09T15:15:25Z</time>
      </trkpt>
      <trkpt lat="42.71509" lon="1.66536">
        <ele>1048.5</ele>
        <time>2020-02-09T15:15:42Z</time>
      </trkpt>
      <trkpt lat="42.71512" lon="1.66537">
        <ele>1048.4</ele>
        <time>2020-02-09T15:15:48Z</time>
      </trkpt>
      <trkpt lat="42.71516" lon="1.66533">
        <ele>1048.3</ele>
        <time>2020-02-09T15:15:50Z</time>
      </trkpt>
      <trkpt lat="42.71513" lon="1.66535">
        <ele>1048.2</ele>
        <time>2020-02-09T15:15:54Z</time>
      </trkpt>
      <trkpt lat="42.7151" lon="1.66539">
        <ele>1048.1</ele>
        <time>2020-02-09T15:15:58Z</time>
      </trkpt>
      <trkpt lat="42.71508" lon="1.6654">
        <ele>1048.1</ele>
        <time>2020-02-09T15:16:02Z</time>
      </trkpt>
      <trkpt lat="42.71505" lon="1.66541">
        <ele>1048</ele>
        <time>2020-02-09T15:16:08Z</time>
      </trkpt>
      <trkpt lat="42.71502" lon="1.66545">
        <ele>1047.9</ele>
        <time>2020-02-09T15:16:15Z</time>
      </trkpt>
      <trkpt lat="42.71506" lon="1.66543">
        <ele>1047.8</ele>
        <time>2020-02-09T15:16:29Z</time>
      </trkpt>
      <trkpt lat="42.71509" lon="1.66541">
        <ele>1047.8</ele>
        <time>2020-02-09T15:16:36Z</time>
      </trkpt>
      <trkpt lat="42.7151" lon="1.66537">
        <ele>1047.7</ele>
        <time>2020-02-09T15:16:38Z</time>
      </trkpt>
      <trkpt lat="42.71511" lon="1.66542">
        <ele>1047.7</ele>
        <time>2020-02-09T15:17:13Z</time>
      </trkpt>
      <trkpt lat="42.71513" lon="1.66539">
        <ele>1047.6</ele>
        <time>2020-02-09T15:17:29Z</time>
      </trkpt>
      <trkpt lat="42.7151" lon="1.66538">
        <ele>1047.6</ele>
        <time>2020-02-09T15:17:57Z</time>
      </trkpt>
      <trkpt lat="42.71511" lon="1.66534">
        <ele>1047.6</ele>
        <time>2020-02-09T15:18:15Z</time>
      </trkpt>
      <trkpt lat="42.71511" lon="1.66538">
        <ele>1047.6</ele>
        <time>2020-02-09T15:19:03Z</time>
      </trkpt>
      <trkpt lat="42.71514" lon="1.66536">
        <ele>1047.5</ele>
        <time>2020-02-09T15:19:43Z</time>
      </trkpt>
      <trkpt lat="42.71516" lon="1.66537">
        <ele>1047.5</ele>
        <time>2020-02-09T15:20:22Z</time>
      </trkpt>
      <trkpt lat="42.71519" lon="1.66536">
        <ele>1047.5</ele>
        <time>2020-02-09T15:20:40Z</time>
      </trkpt>
      <trkpt lat="42.71497" lon="1.66535">
        <ele>1047.3</ele>
        <time>2020-02-09T15:20:44Z</time>
      </trkpt>
      <trkpt lat="42.715" lon="1.66534">
        <ele>1047.3</ele>
        <time>2020-02-09T15:20:45Z</time>
      </trkpt>
      <trkpt lat="42.71498" lon="1.66538">
        <ele>1047.2</ele>
        <time>2020-02-09T15:20:50Z</time>
      </trkpt>
      <trkpt lat="42.71502" lon="1.66539">
        <ele>1047.2</ele>
        <time>2020-02-09T15:20:58Z</time>
      </trkpt>
      <trkpt lat="42.71505" lon="1.66541">
        <ele>1047.2</ele>
        <time>2020-02-09T15:21:06Z</time>
      </trkpt>
      <trkpt lat="42.71508" lon="1.66546">
        <ele>1047.2</ele>
        <time>2020-02-09T15:21:09Z</time>
      </trkpt>
      <trkpt lat="42.71512" lon="1.6655">
        <ele>1047.1</ele>
        <time>2020-02-09T15:21:11Z</time>
      </trkpt>
      <trkpt lat="42.71515" lon="1.66552">
        <ele>1047.1</ele>
        <time>2020-02-09T15:21:12Z</time>
      </trkpt>
      <trkpt lat="42.71519" lon="1.66553">
        <ele>1047.1</ele>
        <time>2020-02-09T15:21:13Z</time>
      </trkpt>
      <trkpt lat="42.71528" lon="1.66553">
        <ele>1047</ele>
        <time>2020-02-09T15:21:15Z</time>
      </trkpt>
      <trkpt lat="42.71538" lon="1.66555">
        <ele>1046.9</ele>
        <time>2020-02-09T15:21:17Z</time>
      </trkpt>
      <trkpt lat="42.7155" lon="1.66558">
        <ele>1046.8</ele>
        <time>2020-02-09T15:21:19Z</time>
      </trkpt>
      <trkpt lat="42.71563" lon="1.66564">
        <ele>1046.6</ele>
        <time>2020-02-09T15:21:21Z</time>
      </trkpt>
      <trkpt lat="42.71569" lon="1.66567">
        <ele>1046.6</ele>
        <time>2020-02-09T15:21:22Z</time>
      </trkpt>
      <trkpt lat="42.71578" lon="1.66574">
        <ele>1046.5</ele>
        <time>2020-02-09T15:21:24Z</time>
      </trkpt>
      <trkpt lat="42.71583" lon="1.66577">
        <ele>1046.4</ele>
        <time>2020-02-09T15:21:26Z</time>
      </trkpt>
      <trkpt lat="42.71587" lon="1.66581">
        <ele>1046.4</ele>
        <time>2020-02-09T15:21:29Z</time>
      </trkpt>
    </trkseg>
  </trk>
</gpx>